createdAt,value
2022-11-21T00:00:04.740Z,98622.50
2022-11-21T00:02:49.735Z,98629.94
2022-11-21T00:05:42.012Z,98636.38
2022-11-21T00:08:26.699Z,98641.13
2022-11-21T00:11:12.043Z,98637.47
2022-11-21T00:13:57.258Z,98648.38
2022-11-21T00:16:42.209Z,98637.31
2022-11-21T00:19:27.130Z,98628.63
2022-11-21T00:22:11.682Z,98623.56
2022-11-21T00:24:57.449Z,98620.91
2022-11-21T00:27:42.315Z,98627.69
2022-11-21T00:30:27.837Z,98619.47
2022-11-21T00:33:12.340Z,98613.63
2022-11-21T00:35:57.279Z,98614.75
2022-11-21T00:38:41.830Z,98607.78
2022-11-21T00:41:26.647Z,98608.59
2022-11-21T00:44:11.226Z,98616.97
2022-11-21T00:46:56.109Z,98610.94
2022-11-21T00:49:40.686Z,98598.63
2022-11-21T00:52:25.765Z,98577.47
2022-11-21T00:55:10.686Z,98572.44
2022-11-21T00:57:55.714Z,98565.78
2022-11-21T01:00:40.918Z,98574.34
2022-11-21T01:03:25.763Z,98578.59
2022-11-21T01:06:13.219Z,98581.13
2022-11-21T01:08:58.242Z,98583.66
2022-11-21T01:11:43.153Z,98584.13
2022-11-21T01:14:28.310Z,98572.44
2022-11-21T01:17:13.349Z,98575.75
2022-11-21T01:19:57.888Z,98586.47
2022-11-21T01:22:42.815Z,98583.75
2022-11-21T01:25:27.785Z,98573.66
2022-11-21T01:28:12.936Z,98576.03
2022-11-21T01:31:04.970Z,98572.72
2022-11-21T01:33:49.879Z,98576.97
2022-11-21T01:36:34.977Z,98583.00
2022-11-21T01:39:19.729Z,98587.09
2022-11-21T01:42:04.449Z,98586.28
2022-11-21T01:44:52.815Z,98574.47
2022-11-21T01:47:37.814Z,98565.94
2022-11-21T01:50:22.512Z,98567.50
2022-11-21T01:53:07.334Z,98570.81
2022-11-21T01:55:53.032Z,98560.88
2022-11-21T01:58:40.540Z,98555.03
2022-11-21T02:01:26.897Z,98557.56
2022-11-21T02:04:11.824Z,98550.50
2022-11-21T02:06:57.707Z,98558.50
2022-11-21T02:09:46.342Z,98549.19
2022-11-21T02:12:37.717Z,98548.41
2022-11-21T02:15:25.237Z,98542.59
2022-11-21T02:18:09.751Z,98555.03
2022-11-21T02:21:05.965Z,98552.53
2022-11-21T02:24:04.888Z,98556.31
2022-11-21T02:26:49.545Z,98555.34
2022-11-21T02:29:34.516Z,98556.59
2022-11-21T02:32:23.513Z,98552.16
2022-11-21T02:35:08.508Z,98545.69
2022-11-21T02:37:58.395Z,98538.72
2022-11-21T02:41:11.088Z,98535.25
2022-11-21T02:44:03.245Z,98541.25
2022-11-21T02:46:50.317Z,98546.13
2022-11-21T02:49:59.535Z,98551.19
2022-11-21T02:52:44.110Z,98554.34
2022-11-21T02:55:29.193Z,98553.72
2022-11-21T02:58:14.261Z,98550.84
2022-11-21T03:00:59.112Z,98573.28
2022-11-21T03:03:44.210Z,98572.47
2022-11-21T03:06:29.236Z,98579.91
2022-11-21T03:09:14.136Z,98570.25
2022-11-21T03:11:59.038Z,98563.00
2022-11-21T03:14:43.956Z,98580.19
2022-11-21T03:17:28.882Z,98581.94
2022-11-21T03:20:14.042Z,98568.34
2022-11-21T03:22:59.010Z,98583.50
2022-11-21T03:25:44.095Z,98590.75
2022-11-21T03:28:29.300Z,98585.88
2022-11-21T03:31:13.913Z,98590.75
2022-11-21T03:33:58.897Z,98594.84
2022-11-21T03:36:43.664Z,98592.34
2022-11-21T03:39:31.622Z,98586.00
2022-11-21T03:42:16.104Z,98580.31
2022-11-21T03:45:00.993Z,98577.44
2022-11-21T03:47:45.461Z,98569.25
2022-11-21T03:50:30.375Z,98555.81
2022-11-21T03:53:15.219Z,98562.91
2022-11-21T03:56:00.167Z,98561.97
2022-11-21T03:58:45.232Z,98563.88
2022-11-21T04:01:35.247Z,98558.97
2022-11-21T04:04:21.345Z,98549.84
2022-11-21T04:07:06.417Z,98556.44
2022-11-21T04:09:51.289Z,98557.22
2022-11-21T04:12:36.259Z,98552.78
2022-11-21T04:15:20.885Z,98541.91
2022-11-21T04:18:06.102Z,98553.75
2022-11-21T04:21:05.093Z,98573.00
2022-11-21T04:23:50.263Z,98574.13
2022-11-21T04:26:35.164Z,98582.19
2022-11-21T04:29:19.670Z,98578.06
2022-11-21T04:32:04.852Z,98581.56
2022-11-21T04:34:49.921Z,98566.22
2022-11-21T04:37:35.005Z,98564.50
2022-11-21T04:40:19.849Z,98580.13
2022-11-21T04:43:05.697Z,98579.94
2022-11-21T04:45:50.268Z,98569.03
2022-11-21T04:48:35.165Z,98583.06
2022-11-21T04:51:19.924Z,98569.50
2022-11-21T04:54:04.949Z,98561.72
2022-11-21T04:56:50.070Z,98555.91
2022-11-21T04:59:34.902Z,98554.00
2022-11-21T05:02:19.705Z,98540.38
2022-11-21T05:05:05.156Z,98539.44
2022-11-21T05:07:50.151Z,98528.38
2022-11-21T05:10:54.950Z,98529.50
2022-11-21T05:13:39.532Z,98546.69
2022-11-21T05:16:24.367Z,98542.44
2022-11-21T05:19:09.137Z,98545.28
2022-11-21T05:21:53.741Z,98549.38
2022-11-21T05:24:38.451Z,98550.16
2022-11-21T05:27:23.147Z,98547.50
2022-11-21T05:30:08.579Z,98538.13
2022-11-21T05:32:53.473Z,98528.03
2022-11-21T05:35:42.878Z,98526.13
2022-11-21T05:38:28.574Z,98510.97
2022-11-21T05:41:13.528Z,98507.47
2022-11-21T05:43:58.188Z,98502.59
2022-11-21T05:46:43.317Z,98499.88
2022-11-21T05:49:27.867Z,98494.66
2022-11-21T05:52:12.509Z,98497.81
2022-11-21T05:54:57.354Z,98490.41
2022-11-21T05:57:42.314Z,98501.13
2022-11-21T06:00:28.402Z,98500.78
2022-11-21T06:03:28.274Z,98501.56
2022-11-21T06:06:17.660Z,98503.75
2022-11-21T06:09:04.538Z,98508.31
2022-11-21T06:11:49.311Z,98498.97
2022-11-21T06:14:34.189Z,98503.34
2022-11-21T06:17:19.258Z,98498.75
2022-11-21T06:20:04.638Z,98494.09
2022-11-21T06:22:49.810Z,98498.31
2022-11-21T06:25:34.770Z,98486.72
2022-11-21T06:28:19.607Z,98477.66
2022-11-21T06:31:06.443Z,98478.56
2022-11-21T06:33:53.191Z,98483.88
2022-11-21T06:36:38.526Z,98496.16
2022-11-21T06:39:23.330Z,98485.88
2022-11-21T06:42:09.333Z,98478.09
2022-11-21T06:44:54.242Z,98476.28
2022-11-21T06:47:39.138Z,98486.31
2022-11-21T06:50:24.382Z,98490.84
2022-11-21T06:53:09.221Z,98487.63
2022-11-21T06:56:04.853Z,98477.94
2022-11-21T06:58:49.784Z,98485.16
2022-11-21T07:01:35.313Z,98470.75
2022-11-21T07:04:21.567Z,98477.31
2022-11-21T07:07:07.291Z,98470.13
2022-11-21T07:09:52.468Z,98476.75
2022-11-21T07:13:00.720Z,98467.41
2022-11-21T07:15:47.209Z,98474.13
2022-11-21T07:18:33.584Z,98474.47
2022-11-21T07:21:18.635Z,98482.78
2022-11-21T07:24:04.029Z,98485.09
2022-11-21T07:26:52.060Z,98486.50
2022-11-21T07:29:38.461Z,98492.19
2022-11-21T07:32:27.374Z,98497.06
2022-11-21T07:35:11.979Z,98483.25
2022-11-21T07:38:07.047Z,98457.31
2022-11-21T07:40:53.093Z,98457.38
2022-11-21T07:43:37.842Z,98453.69
2022-11-21T07:46:54.988Z,98439.72
2022-11-21T07:49:40.608Z,98444.44
2022-11-21T07:52:31.747Z,98456.19
2022-11-21T07:55:16.839Z,98455.88
2022-11-21T07:58:13.368Z,98456.56
2022-11-21T08:00:58.460Z,98447.38
2022-11-21T08:03:45.505Z,98452.31
2022-11-21T08:06:30.409Z,98461.75
2022-11-21T08:09:15.578Z,98456.91
2022-11-21T08:12:00.451Z,98461.63
2022-11-21T08:14:47.156Z,98471.00
2022-11-21T08:17:33.113Z,98467.88
2022-11-21T08:21:06.164Z,98475.31
2022-11-21T08:24:19.260Z,98478.03
2022-11-21T08:27:04.569Z,98475.09
2022-11-21T08:29:49.740Z,98470.00
2022-11-21T08:33:05.106Z,98464.56
2022-11-21T08:35:53.910Z,98488.84
2022-11-21T08:38:41.504Z,98491.81
2022-11-21T08:41:53.361Z,98474.56
2022-11-21T08:44:44.216Z,98491.13
2022-11-21T08:47:55.981Z,98497.22
2022-11-21T08:50:41.701Z,98489.31
2022-11-21T08:53:28.113Z,98513.34
2022-11-21T08:56:14.861Z,98508.28
2022-11-21T08:59:07.407Z,98467.50
2022-11-21T09:01:52.965Z,98469.13
2022-11-21T09:04:44.111Z,98490.69
2022-11-21T09:07:33.596Z,98463.81
2022-11-21T09:10:18.635Z,98473.06
2022-11-21T09:13:04.153Z,98475.44
2022-11-21T09:16:08.030Z,98462.31
2022-11-21T09:18:53.406Z,98469.56
2022-11-21T09:21:38.548Z,98467.81
2022-11-21T09:24:23.346Z,98465.09
2022-11-21T09:27:08.622Z,98455.50
2022-11-21T09:29:55.791Z,98458.06
2022-11-21T09:32:40.889Z,98462.41
2022-11-21T09:35:25.693Z,98449.16
2022-11-21T09:38:11.038Z,98450.91
2022-11-21T09:41:51.568Z,98458.34
2022-11-21T09:45:10.485Z,98464.00
2022-11-21T09:48:12.261Z,98455.81
2022-11-21T09:51:05.561Z,98460.69
2022-11-21T09:54:05.213Z,98459.16
2022-11-21T09:56:53.189Z,98451.78
2022-11-21T09:59:39.580Z,98458.81
2022-11-21T10:02:26.016Z,98447.06
2022-11-21T10:05:15.616Z,98447.69
2022-11-21T10:08:07.621Z,98443.94
2022-11-21T10:11:11.540Z,98438.84
2022-11-21T10:14:06.247Z,98449.16
2022-11-21T10:17:16.984Z,98444.06
2022-11-21T10:20:25.426Z,98427.22
2022-11-21T10:23:36.280Z,98411.72
2022-11-21T10:26:45.381Z,98405.44
2022-11-21T10:29:36.849Z,98401.09
2022-11-21T10:32:45.412Z,98391.88
2022-11-21T10:35:45.507Z,98384.06
2022-11-21T10:38:36.306Z,98373.47
2022-11-21T10:41:43.873Z,98365.84
2022-11-21T10:44:48.423Z,98358.81
2022-11-21T10:47:37.241Z,98346.50
2022-11-21T10:50:44.849Z,98345.72
2022-11-21T10:53:49.860Z,98330.88
2022-11-21T10:56:35.919Z,98333.19
2022-11-21T10:59:30.495Z,98343.09
2022-11-21T11:02:19.161Z,98334.47
2022-11-21T11:05:29.151Z,98315.53
2022-11-21T11:08:14.808Z,98293.03
2022-11-21T11:11:18.174Z,98293.66
2022-11-21T11:14:12.950Z,98290.09
2022-11-21T11:17:01.929Z,98280.09
2022-11-21T11:20:01.083Z,98283.13
2022-11-21T11:22:46.070Z,98284.06
2022-11-21T11:25:35.327Z,98272.19
2022-11-21T11:28:20.965Z,98261.69
2022-11-21T11:31:10.109Z,98255.69
2022-11-21T11:33:56.267Z,98247.09
2022-11-21T11:36:55.782Z,98234.75
2022-11-21T11:40:12.411Z,98234.16
2022-11-21T11:43:53.630Z,98227.72
2022-11-21T11:47:16.318Z,98229.09
2022-11-21T11:50:42.091Z,98207.03
2022-11-21T11:54:22.604Z,98207.41
2022-11-21T11:57:31.262Z,98209.28
2022-11-21T12:00:56.533Z,98212.72
2022-11-21T12:03:46.981Z,98215.66
2022-11-21T12:10:20.322Z,98213.84
2022-11-21T12:13:13.334Z,98207.66
2022-11-21T12:16:11.927Z,98196.75
2022-11-21T12:19:16.507Z,98186.81
2022-11-21T12:22:06.008Z,98187.03
2022-11-21T12:24:54.093Z,98179.63
2022-11-21T12:27:55.852Z,98180.00
2022-11-21T12:30:44.603Z,98183.09
2022-11-21T12:33:44.143Z,98167.91
2022-11-21T12:36:44.150Z,98171.44
2022-11-21T12:39:44.177Z,98163.22
2022-11-21T12:42:58.708Z,98149.50
2022-11-21T12:46:07.778Z,98156.63
2022-11-21T12:49:37.289Z,98135.72
2022-11-21T12:52:50.254Z,98139.09
2022-11-21T12:55:41.875Z,98134.66
2022-11-21T12:58:51.914Z,98128.38
2022-11-21T13:01:49.598Z,98130.66
2022-11-21T13:04:37.818Z,98127.91
2022-11-21T13:07:29.211Z,98129.88
2022-11-21T13:10:16.686Z,98121.50
2022-11-21T13:13:07.616Z,98122.72
2022-11-21T13:16:08.205Z,98112.19
2022-11-21T13:18:53.502Z,98112.72
2022-11-21T13:21:47.324Z,98119.97
2022-11-21T13:25:33.709Z,98117.00
2022-11-21T13:28:20.806Z,98108.47
2022-11-21T13:31:29.604Z,98109.41
2022-11-21T13:34:36.819Z,98102.81
2022-11-21T13:37:49.918Z,98101.22
2022-11-21T13:40:39.338Z,98096.72
2022-11-21T13:43:33.166Z,98096.88
2022-11-21T13:46:58.125Z,98092.19
2022-11-21T13:50:08.863Z,98089.63
2022-11-21T13:53:38.514Z,98086.13
2022-11-21T13:56:36.693Z,98076.03
2022-11-21T13:59:54.847Z,98077.56
2022-11-21T14:03:10.200Z,98072.69
2022-11-21T14:06:19.649Z,98068.81
2022-11-21T14:09:14.119Z,98072.16
2022-11-21T14:12:05.328Z,98063.97
2022-11-21T14:15:02.212Z,98068.22
2022-11-21T14:17:52.763Z,98065.13
2022-11-21T14:20:53.869Z,98061.19
2022-11-21T14:23:43.734Z,98053.63
2022-11-21T14:26:38.330Z,98059.06
2022-11-21T14:29:28.661Z,98054.94
2022-11-21T14:32:14.641Z,98058.66
2022-11-21T14:35:10.981Z,98057.09
2022-11-21T14:37:57.895Z,98056.50
2022-11-21T14:40:42.995Z,98053.97
2022-11-21T14:43:32.923Z,98051.25
2022-11-21T14:46:20.879Z,98053.19
2022-11-21T14:49:21.443Z,98058.25
2022-11-21T14:52:16.763Z,98052.59
2022-11-21T14:58:15.744Z,98051.81
2022-11-21T15:01:05.240Z,98052.75
2022-11-21T15:04:07.671Z,98047.69
2022-11-21T15:06:52.498Z,98055.28
2022-11-21T16:58:19.646Z,98055.69
2022-11-21T17:01:12.398Z,98051.56
2022-11-21T17:03:57.671Z,98052.53
2022-11-21T17:06:42.391Z,98046.50
2022-11-21T17:09:26.934Z,98040.50
2022-11-21T17:12:12.740Z,98039.88
2022-11-21T17:14:57.535Z,98038.16
2022-11-21T17:17:42.823Z,98023.53
2022-11-21T17:20:27.904Z,98028.59
2022-11-21T17:23:12.952Z,98028.22
2022-11-21T17:26:09.167Z,98020.06
2022-11-21T17:28:59.373Z,98023.34
2022-11-21T17:31:44.430Z,98019.84
2022-11-21T17:34:33.042Z,98025.09
2022-11-21T17:37:18.062Z,98011.09
2022-11-21T17:40:03.650Z,98015.16
2022-11-21T17:42:48.507Z,98008.38
2022-11-21T17:45:36.647Z,98000.97
2022-11-21T17:48:21.536Z,97995.50
2022-11-21T17:51:17.939Z,97997.47
2022-11-21T17:54:03.360Z,97996.69
2022-11-21T17:56:53.804Z,97994.94
2022-11-21T17:59:41.211Z,97991.22
2022-11-21T18:02:26.645Z,97984.59
2022-11-21T18:05:11.439Z,97979.91
2022-11-21T18:07:56.725Z,97984.94
2022-11-21T18:10:43.803Z,97981.03
2022-11-21T18:13:31.166Z,97991.00
2022-11-21T18:16:19.142Z,97984.78
2022-11-21T18:19:03.906Z,97978.94
2022-11-21T18:21:48.713Z,97988.06
2022-11-21T18:24:33.404Z,97976.59
2022-11-21T18:27:18.277Z,97981.13
2022-11-21T18:30:03.756Z,97975.63
2022-11-21T18:32:49.015Z,97970.16
2022-11-21T18:35:33.942Z,97968.00
2022-11-21T18:38:46.119Z,97977.13
2022-11-21T18:41:24.843Z,97971.66
2022-11-21T18:44:09.809Z,97964.06
2022-11-21T18:46:54.438Z,97968.16
2022-11-21T18:49:39.128Z,97962.53
2022-11-21T18:52:24.250Z,97960.34
2022-11-21T18:55:08.954Z,97959.22
2022-11-21T18:57:53.554Z,97957.03
2022-11-21T19:00:38.352Z,97952.56
2022-11-21T19:03:23.027Z,97945.97
2022-11-21T19:06:17.092Z,97945.97
2022-11-21T19:09:01.844Z,97938.97
2022-11-21T19:11:47.102Z,97945.56
2022-11-21T19:14:31.868Z,97946.69
2022-11-21T19:17:17.054Z,97947.69
2022-11-21T19:20:01.883Z,97952.72
2022-11-21T19:22:46.827Z,97950.97
2022-11-21T19:25:32.142Z,97955.66
2022-11-21T19:28:16.713Z,97949.41
2022-11-21T19:31:03.324Z,97957.59
2022-11-21T19:33:48.209Z,97955.41
2022-11-21T19:36:33.136Z,97968.47
2022-11-21T19:39:18.033Z,97961.06
2022-11-21T19:42:02.657Z,97962.06
2022-11-21T19:44:47.616Z,97955.66
2022-11-21T19:47:33.338Z,97955.06
2022-11-21T19:50:18.319Z,97958.97
2022-11-21T19:53:02.760Z,97958.19
2022-11-21T19:55:47.792Z,97959.16
2022-11-21T19:58:32.617Z,97957.22
2022-11-21T20:01:18.891Z,97955.50
2022-11-21T20:04:05.358Z,97948.66
2022-11-21T20:06:50.381Z,97944.38
2022-11-21T20:09:35.680Z,97950.56
2022-11-21T20:12:20.709Z,97939.06
2022-11-21T20:15:06.421Z,97943.16
2022-11-21T20:17:52.077Z,97938.44
2022-11-21T20:20:36.739Z,97935.94
2022-11-21T20:23:21.539Z,97940.22
2022-11-21T20:26:07.400Z,97938.44
2022-11-21T20:28:53.424Z,97931.84
2022-11-21T20:31:38.786Z,97937.69
2022-11-21T20:34:23.365Z,97946.81
2022-11-21T20:37:08.240Z,97944.88
2022-11-21T20:39:52.933Z,97943.09
2022-11-21T20:42:38.403Z,97952.41
2022-11-21T20:46:07.065Z,97954.16
2022-11-21T20:48:27.817Z,97946.53
2022-11-21T20:54:18.340Z,97953.91
2022-11-21T20:57:03.167Z,97957.81
2022-11-21T20:59:47.991Z,97959.41
2022-11-21T21:02:32.678Z,97956.88
2022-11-21T21:05:17.510Z,97960.94
2022-11-21T21:08:02.278Z,97959.22
2022-11-21T21:11:05.320Z,97963.91
2022-11-21T21:13:51.691Z,97958.25
2022-11-21T21:16:36.574Z,97968.53
2022-11-21T21:19:21.360Z,97967.75
2022-11-21T21:22:08.313Z,97966.53
2022-11-21T21:24:53.174Z,97960.91
2022-11-21T21:27:37.947Z,97970.81
2022-11-21T21:30:23.146Z,97973.53
2022-11-21T21:33:09.175Z,97973.88
2022-11-21T21:35:53.905Z,97977.78
2022-11-21T21:38:39.170Z,97986.31
2022-11-21T21:41:25.404Z,97987.69
2022-11-21T21:44:09.987Z,97989.09
2022-11-21T21:46:54.811Z,97990.31
2022-11-21T21:49:39.308Z,97982.91
2022-11-21T21:52:24.073Z,97986.19
2022-11-21T21:55:08.812Z,97984.09
2022-11-21T21:57:54.917Z,97983.69
2022-11-21T22:00:41.085Z,97971.41
2022-11-21T22:03:26.102Z,97969.84
2022-11-21T22:06:14.888Z,97963.81
2022-11-21T22:08:59.940Z,97963.66
2022-11-21T22:12:03.333Z,97955.06
2022-11-21T22:14:48.314Z,97956.78
2022-11-21T22:17:33.126Z,97956.19
2022-11-21T22:24:32.147Z,97940.00
2022-11-21T22:27:17.157Z,97940.22
2022-11-21T22:30:01.958Z,97937.25
2022-11-21T22:32:47.248Z,97951.84
2022-11-21T22:35:32.854Z,97949.53
2022-11-21T22:38:18.280Z,97943.50
2022-11-21T22:41:12.878Z,97947.03
2022-11-21T22:43:58.942Z,97949.56
2022-11-21T22:46:43.684Z,97956.00
2022-11-21T22:49:29.015Z,97942.63
2022-11-21T22:52:14.244Z,97939.31
2022-11-21T22:54:59.413Z,97940.63
2022-11-21T22:58:11.835Z,97950.56
2022-11-21T23:01:08.677Z,97951.69
2022-11-21T23:03:55.140Z,97946.81
2022-11-21T23:06:48.987Z,97948.38
2022-11-21T23:09:34.347Z,97949.16
2022-11-21T23:12:18.904Z,97945.84
2022-11-21T23:18:39.398Z,97950.31
2022-11-21T23:21:24.346Z,97949.44
2022-11-21T23:24:09.574Z,97957.63
2022-11-21T23:26:54.754Z,97952.59
2022-11-21T23:29:39.611Z,97961.72
2022-11-21T23:32:24.829Z,97963.28
2022-11-21T23:35:09.708Z,97964.06
2022-11-21T23:37:54.679Z,97955.72
2022-11-21T23:40:39.569Z,97968.34
2022-11-21T23:43:24.720Z,97981.75
2022-11-21T23:46:09.356Z,97980.16
2022-11-21T23:48:54.468Z,97986.16
2022-11-21T23:51:39.457Z,97978.97
2022-11-21T23:54:24.317Z,97989.66
2022-11-21T23:57:09.779Z,97984.78
2022-11-21T23:59:54.545Z,97994.13
